sensor_id;sensor_type;location;lat;lon;timestamp;temperature;humidity
6690;DHT22;3382;51.576;8.076;2022-10-16T00:01:46;16.60;99.90
6690;DHT22;3382;51.576;8.076;2022-10-16T00:04:12;16.80;99.90
6690;DHT22;3382;51.576;8.076;2022-10-16T00:06:38;16.60;99.90
6690;DHT22;3382;51.576;8.076;2022-10-16T00:09:03;16.60;99.90
6690;DHT22;3382;51.576;8.076;2022-10-16T00:11:34;16.60;99.90
6690;DHT22;3382;51.576;8.076;2022-10-16T00:14:03;16.60;99.90
6690;DHT22;3382;51.576;8.076;2022-10-16T00:16:30;16.60;99.90
6690;DHT22;3382;51.576;8.076;2022-10-16T00:18:56;16.50;99.90
6690;DHT22;3382;51.576;8.076;2022-10-16T00:21:27;16.50;99.90
6690;DHT22;3382;51.576;8.076;2022-10-16T00:23:56;16.50;99.90
6690;DHT22;3382;51.576;8.076;2022-10-16T00:26:22;16.50;99.90
6690;DHT22;3382;51.576;8.076;2022-10-16T00:28:49;16.50;99.90
6690;DHT22;3382;51.576;8.076;2022-10-16T00:31:16;16.50;99.90
6690;DHT22;3382;51.576;8.076;2022-10-16T00:33:42;16.50;99.90
6690;DHT22;3382;51.576;8.076;2022-10-16T00:36:12;16.40;99.90
6690;DHT22;3382;51.576;8.076;2022-10-16T00:38:38;16.40;99.90
6690;DHT22;3382;51.576;8.076;2022-10-16T00:41:05;16.40;99.90
6690;DHT22;3382;51.576;8.076;2022-10-16T00:51:30;16.40;99.90
6690;DHT22;3382;51.576;8.076;2022-10-16T00:53:58;16.40;99.90
6690;DHT22;3382;51.576;8.076;2022-10-16T00:56:24;16.40;99.90
6690;DHT22;3382;51.576;8.076;2022-10-16T00:58:49;16.40;99.90
6690;DHT22;3382;51.576;8.076;2022-10-16T01:01:15;16.40;99.90
6690;DHT22;3382;51.576;8.076;2022-10-16T01:03:41;16.40;99.90
6690;DHT22;3382;51.576;8.076;2022-10-16T01:06:21;16.30;99.90
6690;DHT22;3382;51.576;8.076;2022-10-16T01:09:02;16.30;99.90
6690;DHT22;3382;51.576;8.076;2022-10-16T01:12:17;16.40;99.90
6690;DHT22;3382;51.576;8.076;2022-10-16T01:14:45;16.30;99.90
6690;DHT22;3382;51.576;8.076;2022-10-16T01:17:18;16.30;99.90
6690;DHT22;3382;51.576;8.076;2022-10-16T01:22:26;16.30;99.90
6690;DHT22;3382;51.576;8.076;2022-10-16T01:24:58;16.30;99.90
6690;DHT22;3382;51.576;8.076;2022-10-16T01:27:30;16.30;99.90
6690;DHT22;3382;51.576;8.076;2022-10-16T01:30:15;16.20;99.90
6690;DHT22;3382;51.576;8.076;2022-10-16T01:33:05;16.20;99.90
6690;DHT22;3382;51.576;8.076;2022-10-16T01:35:40;16.20;99.90
6690;DHT22;3382;51.576;8.076;2022-10-16T01:38:17;16.20;99.90
6690;DHT22;3382;51.576;8.076;2022-10-16T01:40:54;16.20;99.90
6690;DHT22;3382;51.576;8.076;2022-10-16T01:43:33;16.20;99.90
6690;DHT22;3382;51.576;8.076;2022-10-16T01:46:01;16.20;99.90
6690;DHT22;3382;51.576;8.076;2022-10-16T01:48:28;16.20;99.90
6690;DHT22;3382;51.576;8.076;2022-10-16T01:51:05;16.20;99.90
6690;DHT22;3382;51.576;8.076;2022-10-16T01:53:32;16.20;99.90
6690;DHT22;3382;51.576;8.076;2022-10-16T01:55:59;16.20;99.90
6690;DHT22;3382;51.576;8.076;2022-10-16T01:58:25;16.20;99.90
6690;DHT22;3382;51.576;8.076;2022-10-16T02:00:54;16.20;99.90
6690;DHT22;3382;51.576;8.076;2022-10-16T02:03:20;16.20;99.90
6690;DHT22;3382;51.576;8.076;2022-10-16T02:05:52;16.20;99.90
6690;DHT22;3382;51.576;8.076;2022-10-16T02:08:19;16.20;99.90
6690;DHT22;3382;51.576;8.076;2022-10-16T02:10:45;16.20;99.90
6690;DHT22;3382;51.576;8.076;2022-10-16T02:13:21;16.20;99.90
6690;DHT22;3382;51.576;8.076;2022-10-16T02:15:48;16.20;99.90
6690;DHT22;3382;51.576;8.076;2022-10-16T02:18:14;16.20;99.90
6690;DHT22;3382;51.576;8.076;2022-10-16T02:20:48;16.20;99.90
6690;DHT22;3382;51.576;8.076;2022-10-16T02:23:40;16.30;99.90
6690;DHT22;3382;51.576;8.076;2022-10-16T02:26:12;16.20;99.90
6690;DHT22;3382;51.576;8.076;2022-10-16T02:28:44;16.20;99.90
6690;DHT22;3382;51.576;8.076;2022-10-16T02:31:13;16.20;99.90
6690;DHT22;3382;51.576;8.076;2022-10-16T02:33:42;16.10;99.90
6690;DHT22;3382;51.576;8.076;2022-10-16T02:36:09;16.10;99.90
6690;DHT22;3382;51.576;8.076;2022-10-16T02:38:36;16.20;99.90
6690;DHT22;3382;51.576;8.076;2022-10-16T02:41:02;16.10;99.90
6690;DHT22;3382;51.576;8.076;2022-10-16T02:43:28;16.10;99.90
6690;DHT22;3382;51.576;8.076;2022-10-16T02:45:54;16.10;99.90
6690;DHT22;3382;51.576;8.076;2022-10-16T02:48:19;16.10;99.90
6690;DHT22;3382;51.576;8.076;2022-10-16T02:50:45;16.10;99.90
6690;DHT22;3382;51.576;8.076;2022-10-16T02:53:10;16.10;99.90
6690;DHT22;3382;51.576;8.076;2022-10-16T02:55:36;16.10;99.90
6690;DHT22;3382;51.576;8.076;2022-10-16T02:58:01;16.10;99.90
6690;DHT22;3382;51.576;8.076;2022-10-16T03:00:27;16.10;99.90
6690;DHT22;3382;51.576;8.076;2022-10-16T03:02:54;16.10;99.90
6690;DHT22;3382;51.576;8.076;2022-10-16T03:05:19;16.10;99.90
6690;DHT22;3382;51.576;8.076;2022-10-16T03:07:45;16.10;99.90
6690;DHT22;3382;51.576;8.076;2022-10-16T03:10:10;16.10;99.90
6690;DHT22;3382;51.576;8.076;2022-10-16T03:12:36;16.10;99.90
6690;DHT22;3382;51.576;8.076;2022-10-16T03:15:02;16.00;99.90
6690;DHT22;3382;51.576;8.076;2022-10-16T03:17:28;16.10;99.90
6690;DHT22;3382;51.576;8.076;2022-10-16T03:19:53;16.10;99.90
6690;DHT22;3382;51.576;8.076;2022-10-16T03:22:19;16.10;99.90
6690;DHT22;3382;51.576;8.076;2022-10-16T03:24:44;16.10;99.90
6690;DHT22;3382;51.576;8.076;2022-10-16T03:27:10;16.10;99.90
6690;DHT22;3382;51.576;8.076;2022-10-16T03:29:35;16.10;99.90
6690;DHT22;3382;51.576;8.076;2022-10-16T03:32:02;16.10;99.90
6690;DHT22;3382;51.576;8.076;2022-10-16T03:34:28;16.10;99.90
6690;DHT22;3382;51.576;8.076;2022-10-16T03:36:53;16.10;99.90
6690;DHT22;3382;51.576;8.076;2022-10-16T03:39:19;16.10;99.90
6690;DHT22;3382;51.576;8.076;2022-10-16T03:41:45;16.10;99.90
6690;DHT22;3382;51.576;8.076;2022-10-16T03:44:11;16.10;99.90
6690;DHT22;3382;51.576;8.076;2022-10-16T03:46:37;16.10;99.90
6690;DHT22;3382;51.576;8.076;2022-10-16T03:49:03;16.10;99.90
6690;DHT22;3382;51.576;8.076;2022-10-16T03:51:28;16.20;99.90
6690;DHT22;3382;51.576;8.076;2022-10-16T03:53:54;16.20;99.90
6690;DHT22;3382;51.576;8.076;2022-10-16T03:56:19;16.20;99.90
6690;DHT22;3382;51.576;8.076;2022-10-16T03:58:45;16.20;99.90
6690;DHT22;3382;51.576;8.076;2022-10-16T04:01:10;16.20;99.90
6690;DHT22;3382;51.576;8.076;2022-10-16T04:03:36;16.20;99.90
6690;DHT22;3382;51.576;8.076;2022-10-16T04:06:02;16.20;99.90
6690;DHT22;3382;51.576;8.076;2022-10-16T04:08:27;16.20;99.90
6690;DHT22;3382;51.576;8.076;2022-10-16T04:10:53;16.20;99.90
6690;DHT22;3382;51.576;8.076;2022-10-16T04:13:18;16.20;99.90
6690;DHT22;3382;51.576;8.076;2022-10-16T04:15:45;16.20;99.90
6690;DHT22;3382;51.576;8.076;2022-10-16T04:18:11;16.20;99.90
6690;DHT22;3382;51.576;8.076;2022-10-16T04:20:37;16.20;99.90
6690;DHT22;3382;51.576;8.076;2022-10-16T04:23:02;16.20;99.90
6690;DHT22;3382;51.576;8.076;2022-10-16T04:25:28;16.20;99.90
6690;DHT22;3382;51.576;8.076;2022-10-16T04:27:54;16.20;99.90
6690;DHT22;3382;51.576;8.076;2022-10-16T04:30:21;16.20;99.90
6690;DHT22;3382;51.576;8.076;2022-10-16T04:32:51;16.20;99.90
6690;DHT22;3382;51.576;8.076;2022-10-16T04:35:18;16.20;99.90
6690;DHT22;3382;51.576;8.076;2022-10-16T04:37:43;16.20;99.90
6690;DHT22;3382;51.576;8.076;2022-10-16T04:40:09;16.20;99.90
6690;DHT22;3382;51.576;8.076;2022-10-16T04:42:34;16.20;99.90
6690;DHT22;3382;51.576;8.076;2022-10-16T04:45:00;16.20;99.90
6690;DHT22;3382;51.576;8.076;2022-10-16T04:47:26;16.10;99.90
6690;DHT22;3382;51.576;8.076;2022-10-16T04:49:51;16.10;99.90
6690;DHT22;3382;51.576;8.076;2022-10-16T04:52:17;16.10;99.90
6690;DHT22;3382;51.576;8.076;2022-10-16T04:54:44;16.10;99.90
6690;DHT22;3382;51.576;8.076;2022-10-16T04:57:10;16.10;99.90
6690;DHT22;3382;51.576;8.076;2022-10-16T04:59:36;16.10;99.90
6690;DHT22;3382;51.576;8.076;2022-10-16T05:02:02;16.00;99.90
6690;DHT22;3382;51.576;8.076;2022-10-16T05:04:27;16.00;99.90
6690;DHT22;3382;51.576;8.076;2022-10-16T05:06:53;16.00;99.90
6690;DHT22;3382;51.576;8.076;2022-10-16T05:09:19;16.00;99.90
6690;DHT22;3382;51.576;8.076;2022-10-16T05:11:44;16.00;99.90
6690;DHT22;3382;51.576;8.076;2022-10-16T05:14:10;16.00;99.90
6690;DHT22;3382;51.576;8.076;2022-10-16T05:16:35;16.00;99.90
6690;DHT22;3382;51.576;8.076;2022-10-16T05:19:01;16.00;99.90
6690;DHT22;3382;51.576;8.076;2022-10-16T05:21:27;16.00;99.90
6690;DHT22;3382;51.576;8.076;2022-10-16T05:23:53;16.00;99.90
6690;DHT22;3382;51.576;8.076;2022-10-16T05:26:19;16.00;99.90
6690;DHT22;3382;51.576;8.076;2022-10-16T05:28:45;16.00;99.90
6690;DHT22;3382;51.576;8.076;2022-10-16T05:31:11;16.00;99.90
6690;DHT22;3382;51.576;8.076;2022-10-16T05:33:36;15.90;99.90
6690;DHT22;3382;51.576;8.076;2022-10-16T05:36:07;15.90;99.90
6690;DHT22;3382;51.576;8.076;2022-10-16T05:38:34;15.90;99.90
6690;DHT22;3382;51.576;8.076;2022-10-16T05:41:00;15.90;99.90
6690;DHT22;3382;51.576;8.076;2022-10-16T05:43:28;15.90;99.90
6690;DHT22;3382;51.576;8.076;2022-10-16T05:45:58;15.90;99.90
6690;DHT22;3382;51.576;8.076;2022-10-16T05:48:25;15.90;99.90
6690;DHT22;3382;51.576;8.076;2022-10-16T05:51:02;15.90;99.90
6690;DHT22;3382;51.576;8.076;2022-10-16T05:53:29;15.90;99.90
6690;DHT22;3382;51.576;8.076;2022-10-16T05:55:55;15.90;99.90
6690;DHT22;3382;51.576;8.076;2022-10-16T05:58:21;15.90;99.90
6690;DHT22;3382;51.576;8.076;2022-10-16T06:01:15;15.90;99.90
6690;DHT22;3382;51.576;8.076;2022-10-16T06:03:41;16.00;99.90
6690;DHT22;3382;51.576;8.076;2022-10-16T06:06:11;15.90;99.90
6690;DHT22;3382;51.576;8.076;2022-10-16T06:08:37;16.00;99.90
6690;DHT22;3382;51.576;8.076;2022-10-16T06:11:05;15.90;99.90
6690;DHT22;3382;51.576;8.076;2022-10-16T06:13:31;15.90;99.90
6690;DHT22;3382;51.576;8.076;2022-10-16T06:15:58;15.90;99.90
6690;DHT22;3382;51.576;8.076;2022-10-16T06:18:26;15.90;99.90
6690;DHT22;3382;51.576;8.076;2022-10-16T06:20:51;15.90;99.90
6690;DHT22;3382;51.576;8.076;2022-10-16T06:23:17;15.90;99.90
6690;DHT22;3382;51.576;8.076;2022-10-16T06:25:42;15.90;99.90
6690;DHT22;3382;51.576;8.076;2022-10-16T06:28:08;15.90;99.90
6690;DHT22;3382;51.576;8.076;2022-10-16T06:30:33;16.00;99.90
6690;DHT22;3382;51.576;8.076;2022-10-16T06:32:59;16.00;99.90
6690;DHT22;3382;51.576;8.076;2022-10-16T06:35:24;16.00;99.90
6690;DHT22;3382;51.576;8.076;2022-10-16T06:37:52;16.00;99.90
6690;DHT22;3382;51.576;8.076;2022-10-16T06:40:17;16.00;99.90
6690;DHT22;3382;51.576;8.076;2022-10-16T06:42:43;16.00;99.90
6690;DHT22;3382;51.576;8.076;2022-10-16T06:45:09;16.00;99.90
6690;DHT22;3382;51.576;8.076;2022-10-16T06:47:35;16.10;99.90
6690;DHT22;3382;51.576;8.076;2022-10-16T06:50:00;16.10;99.90
6690;DHT22;3382;51.576;8.076;2022-10-16T06:52:28;16.10;99.90
6690;DHT22;3382;51.576;8.076;2022-10-16T06:54:53;16.10;99.90
6690;DHT22;3382;51.576;8.076;2022-10-16T06:57:19;16.20;99.90
6690;DHT22;3382;51.576;8.076;2022-10-16T06:59:44;16.20;99.90
6690;DHT22;3382;51.576;8.076;2022-10-16T07:02:10;16.20;99.90
6690;DHT22;3382;51.576;8.076;2022-10-16T07:04:36;16.20;99.90
6690;DHT22;3382;51.576;8.076;2022-10-16T07:07:02;16.30;99.90
6690;DHT22;3382;51.576;8.076;2022-10-16T07:09:27;16.30;99.90
6690;DHT22;3382;51.576;8.076;2022-10-16T07:11:53;16.40;99.90
6690;DHT22;3382;51.576;8.076;2022-10-16T07:14:20;16.40;99.90
6690;DHT22;3382;51.576;8.076;2022-10-16T07:16:46;16.50;99.90
6690;DHT22;3382;51.576;8.076;2022-10-16T07:19:12;16.50;99.90
6690;DHT22;3382;51.576;8.076;2022-10-16T07:21:40;16.60;99.90
6690;DHT22;3382;51.576;8.076;2022-10-16T07:24:10;16.60;99.90
6690;DHT22;3382;51.576;8.076;2022-10-16T07:26:37;16.70;99.90
6690;DHT22;3382;51.576;8.076;2022-10-16T07:29:06;16.80;99.90
6690;DHT22;3382;51.576;8.076;2022-10-16T07:31:32;16.80;99.90
6690;DHT22;3382;51.576;8.076;2022-10-16T07:33:59;16.80;99.90
6690;DHT22;3382;51.576;8.076;2022-10-16T07:36:25;17.00;99.90
6690;DHT22;3382;51.576;8.076;2022-10-16T07:38:50;17.10;99.90
6690;DHT22;3382;51.576;8.076;2022-10-16T07:41:18;17.20;99.90
6690;DHT22;3382;51.576;8.076;2022-10-16T07:43:48;17.30;99.90
6690;DHT22;3382;51.576;8.076;2022-10-16T07:46:15;17.40;99.90
6690;DHT22;3382;51.576;8.076;2022-10-16T07:48:41;17.60;99.90
6690;DHT22;3382;51.576;8.076;2022-10-16T07:51:11;17.80;99.90
6690;DHT22;3382;51.576;8.076;2022-10-16T07:53:37;17.90;99.90
6690;DHT22;3382;51.576;8.076;2022-10-16T07:56:04;18.00;99.90
6690;DHT22;3382;51.576;8.076;2022-10-16T07:58:30;18.10;99.90
6690;DHT22;3382;51.576;8.076;2022-10-16T08:00:57;18.20;99.90
6690;DHT22;3382;51.576;8.076;2022-10-16T08:03:23;18.30;99.90
6690;DHT22;3382;51.576;8.076;2022-10-16T08:05:49;18.30;99.90
6690;DHT22;3382;51.576;8.076;2022-10-16T08:08:16;18.40;99.90
6690;DHT22;3382;51.576;8.076;2022-10-16T08:10:42;18.50;99.90
6690;DHT22;3382;51.576;8.076;2022-10-16T08:13:08;18.50;99.90
6690;DHT22;3382;51.576;8.076;2022-10-16T08:15:33;18.50;99.90
6690;DHT22;3382;51.576;8.076;2022-10-16T08:18:01;18.50;99.90
6690;DHT22;3382;51.576;8.076;2022-10-16T08:20:28;18.50;99.90
6690;DHT22;3382;51.576;8.076;2022-10-16T08:22:54;18.50;99.90
6690;DHT22;3382;51.576;8.076;2022-10-16T08:25:21;18.60;99.90
6690;DHT22;3382;51.576;8.076;2022-10-16T08:27:47;18.50;99.90
6690;DHT22;3382;51.576;8.076;2022-10-16T08:30:13;18.40;99.90
6690;DHT22;3382;51.576;8.076;2022-10-16T08:32:39;18.30;99.90
6690;DHT22;3382;51.576;8.076;2022-10-16T08:35:06;18.30;99.90
6690;DHT22;3382;51.576;8.076;2022-10-16T08:37:32;18.30;99.90
6690;DHT22;3382;51.576;8.076;2022-10-16T08:39:58;18.30;99.90
6690;DHT22;3382;51.576;8.076;2022-10-16T08:50:30;18.50;99.90
6690;DHT22;3382;51.576;8.076;2022-10-16T08:52:57;18.60;99.90
6690;DHT22;3382;51.576;8.076;2022-10-16T08:55:45;18.50;99.90
6690;DHT22;3382;51.576;8.076;2022-10-16T08:58:15;18.60;99.90
6690;DHT22;3382;51.576;8.076;2022-10-16T09:00:43;18.70;99.90
6690;DHT22;3382;51.576;8.076;2022-10-16T09:03:23;18.70;99.90
6690;DHT22;3382;51.576;8.076;2022-10-16T09:09:08;18.70;99.90
6690;DHT22;3382;51.576;8.076;2022-10-16T09:11:39;18.70;99.90
6690;DHT22;3382;51.576;8.076;2022-10-16T09:16:58;18.90;99.90
6690;DHT22;3382;51.576;8.076;2022-10-16T09:19:37;19.30;99.90
6690;DHT22;3382;51.576;8.076;2022-10-16T09:22:14;19.70;99.90
6690;DHT22;3382;51.576;8.076;2022-10-16T09:24:40;20.10;99.90
6690;DHT22;3382;51.576;8.076;2022-10-16T09:27:11;20.00;99.90
6690;DHT22;3382;51.576;8.076;2022-10-16T09:29:37;19.80;99.90
6690;DHT22;3382;51.576;8.076;2022-10-16T09:32:19;19.70;99.90
6690;DHT22;3382;51.576;8.076;2022-10-16T09:34:50;19.80;99.90
6690;DHT22;3382;51.576;8.076;2022-10-16T09:37:20;19.80;99.90
6690;DHT22;3382;51.576;8.076;2022-10-16T09:39:52;20.10;99.90
6690;DHT22;3382;51.576;8.076;2022-10-16T09:42:20;20.20;99.90
6690;DHT22;3382;51.576;8.076;2022-10-16T09:44:53;20.30;99.90
6690;DHT22;3382;51.576;8.076;2022-10-16T09:47:27;20.40;99.90
6690;DHT22;3382;51.576;8.076;2022-10-16T09:50:02;20.40;99.90
6690;DHT22;3382;51.576;8.076;2022-10-16T09:52:31;20.70;99.90
6690;DHT22;3382;51.576;8.076;2022-10-16T09:54:59;20.80;99.90
6690;DHT22;3382;51.576;8.076;2022-10-16T09:57:26;21.00;99.90
6690;DHT22;3382;51.576;8.076;2022-10-16T09:59:57;21.00;99.90
6690;DHT22;3382;51.576;8.076;2022-10-16T10:02:29;21.00;99.90
6690;DHT22;3382;51.576;8.076;2022-10-16T10:04:55;21.10;99.90
6690;DHT22;3382;51.576;8.076;2022-10-16T10:07:35;21.10;99.90
6690;DHT22;3382;51.576;8.076;2022-10-16T10:10:04;21.10;99.90
6690;DHT22;3382;51.576;8.076;2022-10-16T10:12:31;21.20;99.90
6690;DHT22;3382;51.576;8.076;2022-10-16T10:15:04;21.20;99.90
6690;DHT22;3382;51.576;8.076;2022-10-16T10:17:31;21.20;99.90
6690;DHT22;3382;51.576;8.076;2022-10-16T10:20:33;21.10;99.90
6690;DHT22;3382;51.576;8.076;2022-10-16T10:22:51;21.10;99.90
6690;DHT22;3382;51.576;8.076;2022-10-16T10:36:25;21.90;99.90
6690;DHT22;3382;51.576;8.076;2022-10-16T10:46:41;22.20;99.90
6690;DHT22;3382;51.576;8.076;2022-10-16T10:54:46;21.40;99.90
6690;DHT22;3382;51.576;8.076;2022-10-16T10:57:33;21.70;99.90
6690;DHT22;3382;51.576;8.076;2022-10-16T11:05:42;22.00;99.90
6690;DHT22;3382;51.576;8.076;2022-10-16T11:11:06;22.40;99.90
6690;DHT22;3382;51.576;8.076;2022-10-16T11:16:24;22.40;99.90
6690;DHT22;3382;51.576;8.076;2022-10-16T11:19:10;22.40;99.90
6690;DHT22;3382;51.576;8.076;2022-10-16T11:22:00;22.40;99.90
6690;DHT22;3382;51.576;8.076;2022-10-16T11:27:15;22.40;99.90
6690;DHT22;3382;51.576;8.076;2022-10-16T11:29:52;22.30;99.90
6690;DHT22;3382;51.576;8.076;2022-10-16T11:32:26;22.40;99.90
6690;DHT22;3382;51.576;8.076;2022-10-16T11:34:59;22.60;99.90
6690;DHT22;3382;51.576;8.076;2022-10-16T11:37:38;22.60;99.90
6690;DHT22;3382;51.576;8.076;2022-10-16T11:40:28;22.70;99.90
6690;DHT22;3382;51.576;8.076;2022-10-16T11:42:59;22.70;99.90
6690;DHT22;3382;51.576;8.076;2022-10-16T11:45:33;22.60;99.90
6690;DHT22;3382;51.576;8.076;2022-10-16T11:48:33;22.50;99.90
6690;DHT22;3382;51.576;8.076;2022-10-16T11:56:57;22.60;99.90
6690;DHT22;3382;51.576;8.076;2022-10-16T11:59:38;22.60;99.90
6690;DHT22;3382;51.576;8.076;2022-10-16T12:05:03;22.50;99.90
6690;DHT22;3382;51.576;8.076;2022-10-16T12:07:43;22.50;99.90
6690;DHT22;3382;51.576;8.076;2022-10-16T12:10:27;22.40;99.90
6690;DHT22;3382;51.576;8.076;2022-10-16T12:12:54;22.50;99.90
6690;DHT22;3382;51.576;8.076;2022-10-16T12:15:31;22.50;99.90
6690;DHT22;3382;51.576;8.076;2022-10-16T12:17:56;22.60;99.90
6690;DHT22;3382;51.576;8.076;2022-10-16T12:20:29;22.60;99.90
6690;DHT22;3382;51.576;8.076;2022-10-16T12:23:01;22.60;99.90
6690;DHT22;3382;51.576;8.076;2022-10-16T12:25:34;22.50;99.90
6690;DHT22;3382;51.576;8.076;2022-10-16T12:28:17;22.40;99.90
6690;DHT22;3382;51.576;8.076;2022-10-16T12:30:43;22.50;99.90
6690;DHT22;3382;51.576;8.076;2022-10-16T12:33:29;22.70;99.90
6690;DHT22;3382;51.576;8.076;2022-10-16T12:35:56;22.70;99.90
6690;DHT22;3382;51.576;8.076;2022-10-16T12:38:44;22.60;99.90
6690;DHT22;3382;51.576;8.076;2022-10-16T12:41:10;22.70;99.90
6690;DHT22;3382;51.576;8.076;2022-10-16T12:43:44;22.80;99.90
6690;DHT22;3382;51.576;8.076;2022-10-16T12:48:41;22.70;99.90
6690;DHT22;3382;51.576;8.076;2022-10-16T12:53:59;22.80;99.90
6690;DHT22;3382;51.576;8.076;2022-10-16T12:56:35;22.90;99.90
6690;DHT22;3382;51.576;8.076;2022-10-16T13:12:55;22.80;99.90
6690;DHT22;3382;51.576;8.076;2022-10-16T13:18:07;22.70;99.90
6690;DHT22;3382;51.576;8.076;2022-10-16T13:21:31;22.70;99.90
6690;DHT22;3382;51.576;8.076;2022-10-16T13:26:27;23.00;99.90
6690;DHT22;3382;51.576;8.076;2022-10-16T13:28:59;22.90;99.90
6690;DHT22;3382;51.576;8.076;2022-10-16T13:31:26;22.70;99.90
6690;DHT22;3382;51.576;8.076;2022-10-16T13:33:55;22.60;99.90
6690;DHT22;3382;51.576;8.076;2022-10-16T13:36:24;22.60;99.90
6690;DHT22;3382;51.576;8.076;2022-10-16T13:41:35;22.60;99.90
6690;DHT22;3382;51.576;8.076;2022-10-16T13:44:00;22.80;99.90
6690;DHT22;3382;51.576;8.076;2022-10-16T13:46:26;23.00;99.90
6690;DHT22;3382;51.576;8.076;2022-10-16T13:49:10;23.10;99.90
6690;DHT22;3382;51.576;8.076;2022-10-16T13:51:37;23.20;99.90
6690;DHT22;3382;51.576;8.076;2022-10-16T13:54:02;23.00;99.90
6690;DHT22;3382;51.576;8.076;2022-10-16T13:56:30;22.80;99.90
6690;DHT22;3382;51.576;8.076;2022-10-16T13:59:00;22.80;99.90
6690;DHT22;3382;51.576;8.076;2022-10-16T14:01:33;22.70;99.90
6690;DHT22;3382;51.576;8.076;2022-10-16T14:04:05;22.70;99.90
6690;DHT22;3382;51.576;8.076;2022-10-16T14:06:32;22.70;99.90
6690;DHT22;3382;51.576;8.076;2022-10-16T14:09:05;22.60;99.90
6690;DHT22;3382;51.576;8.076;2022-10-16T14:11:33;22.40;99.90
6690;DHT22;3382;51.576;8.076;2022-10-16T14:13:59;22.30;99.90
6690;DHT22;3382;51.576;8.076;2022-10-16T14:16:28;22.20;99.90
6690;DHT22;3382;51.576;8.076;2022-10-16T14:19:04;22.20;99.90
6690;DHT22;3382;51.576;8.076;2022-10-16T14:21:33;22.30;99.90
6690;DHT22;3382;51.576;8.076;2022-10-16T14:23:59;22.20;99.90
6690;DHT22;3382;51.576;8.076;2022-10-16T14:26:28;22.10;99.90
6690;DHT22;3382;51.576;8.076;2022-10-16T14:29:18;22.10;99.90
6690;DHT22;3382;51.576;8.076;2022-10-16T14:31:55;21.90;99.90
6690;DHT22;3382;51.576;8.076;2022-10-16T14:34:35;21.80;99.90
6690;DHT22;3382;51.576;8.076;2022-10-16T14:37:23;21.80;99.90
6690;DHT22;3382;51.576;8.076;2022-10-16T14:39:53;21.70;99.90
6690;DHT22;3382;51.576;8.076;2022-10-16T14:42:22;21.70;99.90
6690;DHT22;3382;51.576;8.076;2022-10-16T14:44:52;21.60;99.90
6690;DHT22;3382;51.576;8.076;2022-10-16T14:47:21;21.60;99.90
6690;DHT22;3382;51.576;8.076;2022-10-16T14:49:50;21.60;99.90
6690;DHT22;3382;51.576;8.076;2022-10-16T14:52:17;21.60;99.90
6690;DHT22;3382;51.576;8.076;2022-10-16T14:54:43;21.60;99.90
6690;DHT22;3382;51.576;8.076;2022-10-16T14:57:19;21.60;99.90
6690;DHT22;3382;51.576;8.076;2022-10-16T14:59:46;21.60;99.90
6690;DHT22;3382;51.576;8.076;2022-10-16T15:02:25;21.60;99.90
6690;DHT22;3382;51.576;8.076;2022-10-16T15:04:52;21.60;99.90
6690;DHT22;3382;51.576;8.076;2022-10-16T15:07:18;21.60;99.90
6690;DHT22;3382;51.576;8.076;2022-10-16T15:09:43;21.60;99.90
6690;DHT22;3382;51.576;8.076;2022-10-16T15:12:09;21.50;99.90
6690;DHT22;3382;51.576;8.076;2022-10-16T15:14:35;21.40;99.90
6690;DHT22;3382;51.576;8.076;2022-10-16T15:17:00;21.40;99.90
6690;DHT22;3382;51.576;8.076;2022-10-16T15:19:26;21.40;99.90
6690;DHT22;3382;51.576;8.076;2022-10-16T15:21:51;21.30;99.90
6690;DHT22;3382;51.576;8.076;2022-10-16T15:24:18;21.30;99.90
6690;DHT22;3382;51.576;8.076;2022-10-16T15:26:43;21.30;99.90
6690;DHT22;3382;51.576;8.076;2022-10-16T15:29:11;21.30;99.90
6690;DHT22;3382;51.576;8.076;2022-10-16T15:31:37;21.30;99.90
6690;DHT22;3382;51.576;8.076;2022-10-16T15:34:03;21.20;99.90
6690;DHT22;3382;51.576;8.076;2022-10-16T15:36:36;21.10;99.90
6690;DHT22;3382;51.576;8.076;2022-10-16T15:39:03;21.10;99.90
6690;DHT22;3382;51.576;8.076;2022-10-16T15:41:29;21.00;99.90
6690;DHT22;3382;51.576;8.076;2022-10-16T15:43:55;21.00;99.90
6690;DHT22;3382;51.576;8.076;2022-10-16T15:46:22;20.90;99.90
6690;DHT22;3382;51.576;8.076;2022-10-16T15:48:49;20.90;99.90
6690;DHT22;3382;51.576;8.076;2022-10-16T15:51:15;20.80;99.90
6690;DHT22;3382;51.576;8.076;2022-10-16T15:53:42;20.80;99.90
6690;DHT22;3382;51.576;8.076;2022-10-16T15:56:09;20.80;99.90
6690;DHT22;3382;51.576;8.076;2022-10-16T15:58:36;20.70;99.90
6690;DHT22;3382;51.576;8.076;2022-10-16T16:01:02;20.60;99.90
6690;DHT22;3382;51.576;8.076;2022-10-16T16:03:32;20.50;99.90
6690;DHT22;3382;51.576;8.076;2022-10-16T16:05:58;20.40;99.90
6690;DHT22;3382;51.576;8.076;2022-10-16T16:08:23;20.30;99.90
6690;DHT22;3382;51.576;8.076;2022-10-16T16:11:03;20.30;99.90
6690;DHT22;3382;51.576;8.076;2022-10-16T16:13:29;20.20;99.90
6690;DHT22;3382;51.576;8.076;2022-10-16T16:15:55;20.10;99.90
6690;DHT22;3382;51.576;8.076;2022-10-16T16:18:21;20.00;99.90
6690;DHT22;3382;51.576;8.076;2022-10-16T16:20:47;20.00;99.90
6690;DHT22;3382;51.576;8.076;2022-10-16T16:23:13;19.90;99.90
6690;DHT22;3382;51.576;8.076;2022-10-16T16:25:39;19.90;99.90
6690;DHT22;3382;51.576;8.076;2022-10-16T16:28:05;19.80;99.90
6690;DHT22;3382;51.576;8.076;2022-10-16T16:30:32;19.80;99.90
6690;DHT22;3382;51.576;8.076;2022-10-16T16:32:58;19.70;99.90
6690;DHT22;3382;51.576;8.076;2022-10-16T16:35:24;19.60;99.90
6690;DHT22;3382;51.576;8.076;2022-10-16T16:37:49;19.50;99.90
6690;DHT22;3382;51.576;8.076;2022-10-16T16:40:15;19.50;99.90
6690;DHT22;3382;51.576;8.076;2022-10-16T16:42:40;19.60;99.90
6690;DHT22;3382;51.576;8.076;2022-10-16T16:45:06;19.70;99.90
6690;DHT22;3382;51.576;8.076;2022-10-16T16:47:32;19.60;99.90
6690;DHT22;3382;51.576;8.076;2022-10-16T16:49:58;19.50;99.90
6690;DHT22;3382;51.576;8.076;2022-10-16T16:52:23;19.50;99.90
6690;DHT22;3382;51.576;8.076;2022-10-16T16:54:49;19.40;99.90
6690;DHT22;3382;51.576;8.076;2022-10-16T16:57:19;19.30;99.90
6690;DHT22;3382;51.576;8.076;2022-10-16T16:59:45;19.20;99.90
6690;DHT22;3382;51.576;8.076;2022-10-16T17:02:10;19.20;99.90
6690;DHT22;3382;51.576;8.076;2022-10-16T17:04:36;19.10;99.90
6690;DHT22;3382;51.576;8.076;2022-10-16T17:07:01;19.10;99.90
6690;DHT22;3382;51.576;8.076;2022-10-16T17:09:27;19.10;99.90
6690;DHT22;3382;51.576;8.076;2022-10-16T17:11:53;19.00;99.90
6690;DHT22;3382;51.576;8.076;2022-10-16T17:14:18;19.00;99.90
6690;DHT22;3382;51.576;8.076;2022-10-16T17:16:44;19.00;99.90
6690;DHT22;3382;51.576;8.076;2022-10-16T17:19:13;19.00;99.90
6690;DHT22;3382;51.576;8.076;2022-10-16T17:21:40;18.90;99.90
6690;DHT22;3382;51.576;8.076;2022-10-16T17:24:06;18.90;99.90
6690;DHT22;3382;51.576;8.076;2022-10-16T17:26:32;18.80;99.90
6690;DHT22;3382;51.576;8.076;2022-10-16T17:29:00;18.80;99.90
6690;DHT22;3382;51.576;8.076;2022-10-16T17:31:31;18.80;99.90
6690;DHT22;3382;51.576;8.076;2022-10-16T17:33:58;18.70;99.90
6690;DHT22;3382;51.576;8.076;2022-10-16T17:36:24;18.70;99.90
6690;DHT22;3382;51.576;8.076;2022-10-16T17:38:50;18.60;99.90
6690;DHT22;3382;51.576;8.076;2022-10-16T17:41:23;18.60;99.90
6690;DHT22;3382;51.576;8.076;2022-10-16T17:43:50;18.60;99.90
6690;DHT22;3382;51.576;8.076;2022-10-16T17:46:18;18.60;99.90
6690;DHT22;3382;51.576;8.076;2022-10-16T17:48:46;18.50;99.90
6690;DHT22;3382;51.576;8.076;2022-10-16T17:51:15;18.50;99.90
6690;DHT22;3382;51.576;8.076;2022-10-16T17:53:41;18.50;99.90